Weather observations for the past three days for
Payson Airport
Imperial (Metric)
Date Time (mst) Wind (mph) Vis. (mi.) Weather Sky Cond. Temperature (ºF) Relative Humidity Wind Chill (°F) Heat Index (°F) Pressure Precipitation (in)
Air Dwpt 6 hour altimeter (in) sea level (mb) 1 hr 3 hr 6 hr
Max. Min.
04 18:55 S 9 10.00 Fair CLR 59 30.2 34% 29.98 0.0
04 18:35 S 8 G 17 10.00 Fair CLR 59 28.4 31% 29.99 0.0
04 18:15 S 10 G 18 10.00 Fair CLR 60.8 28.4 29% 30 0.0
04 17:55 S 14 G 21 10.00 Fair CLR 62.6 30.2 30% 29.99 0.0
04 17:35 SW 8 G 17 10.00 Fair CLR 62.6 30.2 30% 29.99 0.0
04 17:15 SW 9 G 16 10.00 Fair CLR 62.6 30.2 30% 29.99 0.0
04 16:55 SW 9 G 16 10.00 Fair CLR 62.6 28.4 27% 30 0.0
04 16:35 SW 12 G 17 10.00 Fair CLR 62.6 28.4 27% 30 0.0
04 16:15 SW 14 G 18 10.00 Fair CLR 62.6 24.8 24% 30 0.0
04 15:55 S 16 G 22 10.00 Fair CLR 64.4 26.6 24% 30 0.0
04 15:35 SW 15 G 29 10.00 Fair CLR 64.4 26.6 24% 30 0.0
04 15:15 SW 13 G 21 10.00 Fair CLR 62.6 24.8 24% 30.01 0.0
04 14:55 SW 10 G 20 10.00 Fair CLR 62.6 30.2 30% 30.02 0.0
04 14:35 SW 9 G 21 10.00 Fair CLR 62.6 30.2 30% 30.03 0.0
04 14:15 SW 15 G 22 10.00 Fair CLR 64.4 32 30% 30.02 0.0
04 13:55 S 12 G 23 10.00 Fair CLR 64.4 33.8 32% 30.02 0.0
04 13:35 S 12 G 22 10.00 Fair CLR 64.4 33.8 32% 30.02 0.0
04 13:15 SW 13 G 22 10.00 Fair CLR 66.2 33.8 30% 30.02 0.0
04 12:55 S 13 G 24 10.00 Fair CLR 66.2 33.8 30% 30.02 0.0
04 12:35 S 13 G 20 10.00 Fair CLR 64.4 35.6 34% 30.02 0.0
04 12:15 S 13 G 21 10.00 Fair CLR 64.4 35.6 34% 30.02 0.0
04 11:55 SW 12 G 18 10.00 Fair CLR 62.6 37.4 39% 30.03 0.0
04 11:35 Vrbl 6 G 17 10.00 Fair CLR 62.6 37.4 39% 30.04 0.0
04 11:15 S 8 10.00 Fair CLR 62.6 41 45% 30.04 0.0
04 10:55 S 12 G 18 10.00 Fair CLR 60.8 39.2 45% 30.03 0.0
04 10:35 S 12 G 21 10.00 Fair CLR 60.8 39.2 45% 30.05 0.0
04 10:15 S 12 G 18 10.00 Fair CLR 59 41 51% 30.05 0.0
04 09:55 S 9 10.00 Fair CLR 59 39.2 48% 30.05 0.0
04 09:35 S 9 G 20 10.00 Fair CLR 59 39.2 48% 30.05 0.0
04 09:15 S 13 10.00 Fair CLR 59 39.2 48% 30.04 0.0
04 08:55 S 12 G 17 10.00 Fair CLR 59 41 51% 30.04 0.0
04 08:35 S 12 G 21 10.00 Fair CLR 59 41 51% 30.04 0.0
04 08:15 Vrbl 6 10.00 Fair CLR 59 41 51% 30.03 0.0
04 07:55 S 8 10.00 Fair CLR 57.2 41 55% 30.03 0.0
04 07:35 S 7 10.00 Fair CLR 57.2 41 55% 30.03 0.0
04 07:15 S 7 10.00 Fair CLR 57.2 41 55% 30.03 0.0
04 06:55 Vrbl 5 10.00 Fair CLR 55.4 41 59% 30.03 0.0
04 06:35 S 7 10.00 Fair CLR 55.4 41 59% 30.03 0.0
04 06:15 Vrbl 6 10.00 Fair CLR 55.4 41 59% 30.03 0.0
04 05:55 Vrbl 5 10.00 Fair CLR 55.4 41 59% 30.02 0.0
04 05:35 Vrbl 7 G 16 10.00 Fair CLR 55.4 41 59% 30 0.0
04 05:15 Vrbl 6 10.00 Fair CLR 55.4 39.2 55% 30 0.0
04 04:55 Vrbl 5 10.00 Fair CLR 55.4 39.2 55% 30 0.0
04 04:35 SW 3 10.00 Fair CLR 55.4 39.2 55% 30.02 0.0
04 04:15 Vrbl 6 10.00 Fair CLR 55.4 39.2 55% 30.01 0.0
04 03:55 S 6 10.00 Fair CLR 57.2 41 55% 30.02 0.0
04 03:35 SW 3 10.00 Fair CLR 57.2 39.2 51% 30.03 0.0
04 03:15 SW 7 10.00 Fair CLR 57.2 39.2 51% 30.02 0.0
04 02:55 Vrbl 7 10.00 Fair CLR 57.2 39.2 51% 30.03 0.0
04 02:35 SW 9 G 16 10.00 Fair CLR 57.2 37.4 48% 30.01 0.0
04 02:15 SW 9 10.00 Fair CLR 57.2 35.6 44% 30.01 0.0
04 01:55 Vrbl 6 10.00 Fair CLR 59 33.8 39% 30 0.0
04 01:35 Vrbl 6 10.00 Fair CLR 59 32 36% 30.01 0.0
04 01:15 Vrbl 3 10.00 Fair CLR 59 32 36% 30.02 0.0
04 00:55 S 6 10.00 Fair CLR 59 32 36% 30.02 0.0
04 00:35 Vrbl 6 10.00 Fair CLR 59 32 36% 30.02 0.0
04 00:15 SW 5 10.00 Fair CLR 59 30.2 34% 30.02 0.0
03 23:55 Vrbl 3 10.00 Fair CLR 60.8 28.4 29% 30.02 0.0
03 23:35 S 7 10.00 Fair CLR 60.8 28.4 29% 30.02 0.0
03 23:15 S 6 10.00 Fair CLR 60.8 26.6 27% 30.02 0.0
03 22:55 Vrbl 2 10.00 Fair CLR 62.6 28.4 27% 30.02 0.0
03 22:35 Vrbl 3 10.00 Fair CLR 62.6 26.6 25% 30.02 0.0
03 22:15 SW 6 G 16 10.00 Fair CLR 64.4 26.6 24% 30.02 0.0
03 21:55 Vrbl 2 10.00 Fair CLR 64.4 28.4 26% 30.03 0.0
03 21:35 Vrbl 6 10.00 Fair CLR 64.4 28.4 26% 30.02 0.0
03 21:15 SW 10 G 16 10.00 Fair CLR 66.2 28.4 24% 30 0.0
03 20:55 SW 14 G 20 10.00 Fair CLR 66.2 26.6 22% 29.99 0.0
03 20:35 SW 12 G 17 10.00 Fair CLR 68 26.6 21% 29.99 0.0
03 20:15 SW 14 G 22 10.00 Fair CLR 68 26.6 21% 29.98 0.0
03 19:55 SW 13 G 20 10.00 Fair CLR 69.8 26.6 20% 29.97 0.0
03 19:35 SW 13 G 16 10.00 A Few Clouds FEW100 69.8 28.4 21% 29.96 0.0
03 19:15 S 9 G 18 10.00 A Few Clouds FEW100 69.8 28.4 21% 29.95 0.0
03 18:55 S 14 G 22 10.00 Fair CLR 71.6 26.6 19% 29.95 0.0
03 18:35 SW 10 G 26 10.00 Fair CLR 71.6 26.6 19% 29.95 0.0
03 18:15 S 8 G 26 10.00 Fair CLR 73.4 26.6 17% 29.96 0.0
03 17:55 SW 14 G 29 10.00 Fair CLR 73.4 26.6 17% 29.96 0.0
03 17:35 SW 13 G 29 10.00 Fair CLR 75.2 26.6 16% 76 29.96 0.0
03 17:15 SW 15 G 28 10.00 Fair CLR 75.2 28.4 18% 76 29.97 0.0
03 16:55 SW 14 G 25 10.00 Fair CLR 75.2 26.6 16% 76 29.96 0.0
03 16:35 SW 17 G 29 10.00 Fair CLR 77 28.4 17% 77 29.96 0.0
03 16:15 S 12 G 28 10.00 A Few Clouds FEW090 77 33.8 21% 77 29.97 0.0
03 15:55 SW 14 G 28 10.00 A Few Clouds FEW090 77 28.4 17% 77 29.98 0.0
03 15:35 SW 15 G 22 10.00 A Few Clouds FEW100 77 30.2 18% 77 29.99 0.0
03 15:15 S 10 G 22 10.00 A Few Clouds FEW090 73.4 33.8 23% 30 0.0
03 14:55 S 12 G 18 10.00 Partly Cloudy SCT090 75.2 33.8 22% 76 30.01 0.0
03 14:15 S 14 G 25 10.00 A Few Clouds FEW090 77 32 19% 77 30.03 0.0
03 13:55 S 12 G 22 10.00 Fair CLR 75.2 32 21% 76 30.03 0.0
03 13:35 S 10 G 25 10.00 Fair CLR 75.2 35.6 24% 76 30.05 0.0
03 13:15 S 9 G 23 10.00 Fair CLR 75.2 35.6 24% 76 30.06 0.0
03 12:55 S 12 G 21 10.00 Fair CLR 73.4 35.6 25% 30.06 0.0
03 12:35 S 12 G 21 10.00 Fair CLR 73.4 35.6 25% 30.07 0.0
03 11:55 S 10 G 16 10.00 Fair CLR 71.6 39.2 31% 30.08 0.0
03 11:35 SE 10 10.00 Fair CLR 71.6 39.2 31% 30.09 0.0
03 11:15 S 9 10.00 A Few Clouds FEW100 71.6 39.2 31% 30.1 0.0
03 10:55 Vrbl 7 10.00 Mostly Cloudy BKN100 69.8 39.2 33% 30.11 0.0
03 10:35 Vrbl 6 10.00 Partly Cloudy SCT100 68 39.2 35% 30.12 0.0
03 10:15 SE 7 10.00 A Few Clouds FEW100 68 39.2 35% 30.13 0.0
03 09:55 Vrbl 6 10.00 Partly Cloudy SCT100 66.2 39.2 37% 30.13 0.0
03 09:35 SE 8 10.00 A Few Clouds FEW100 64.4 39.2 40% 30.13 0.0
03 09:15 SE 7 10.00 A Few Clouds FEW100 64.4 39.2 40% 30.14 0.0
03 08:55 Vrbl 6 10.00 Mostly Cloudy BKN100 62.6 39.2 42% 30.13 0.0
03 08:35 Vrbl 5 10.00 Mostly Cloudy BKN100 60.8 39.2 45% 30.14 0.0
03 08:15 E 8 10.00 Partly Cloudy SCT100 60.8 39.2 45% 30.13 0.0
03 07:55 Vrbl 5 10.00 Partly Cloudy SCT100 60.8 39.2 45% 30.13 0.0
03 07:35 Vrbl 3 10.00 Fair CLR 59 39.2 48% 30.13 0.0
03 07:15 Vrbl 6 10.00 Fair CLR 59 39.2 48% 30.13 0.0
03 06:55 Vrbl 5 10.00 A Few Clouds FEW100 57.2 37.4 48% 30.13 0.0
03 06:35 Vrbl 5 10.00 Partly Cloudy SCT100 57.2 37.4 48% 30.13 0.0
03 06:15 Vrbl 5 10.00 Partly Cloudy SCT100 57.2 37.4 48% 30.12 0.0
03 05:55 Vrbl 5 10.00 Fair CLR 57.2 37.4 48% 30.12 0.0
03 05:35 Vrbl 5 10.00 Fair CLR 57.2 37.4 48% 30.11 0.0
03 05:15 E 5 10.00 Fair CLR 57.2 37.4 48% 30.1 0.0
03 04:55 E 6 10.00 Fair CLR 57.2 37.4 48% 30.11 0.0
03 04:35 NE 7 10.00 Fair CLR 57.2 37.4 48% 30.11 0.0
03 04:15 Vrbl 5 10.00 Fair CLR 57.2 37.4 48% 30.11 0.0
03 03:55 Vrbl 6 10.00 Fair CLR 57.2 37.4 48% 30.12 0.0
03 03:35 Vrbl 5 10.00 Fair CLR 57.2 35.6 44% 30.12 0.0
03 03:15 Vrbl 5 10.00 Fair CLR 57.2 35.6 44% 30.12 0.0
03 02:55 E 5 10.00 Fair CLR 57.2 35.6 44% 30.12 0.0
03 02:35 Vrbl 6 10.00 Fair CLR 57.2 33.8 41% 30.12 0.0
03 02:15 E 5 10.00 Fair CLR 57.2 32 39% 30.12 0.0
03 01:55 Vrbl 3 10.00 Fair CLR 57.2 30.2 36% 30.13 0.0
03 01:35 Vrbl 3 10.00 Fair CLR 59 28.4 31% 30.12 0.0
03 01:15 Vrbl 6 10.00 Fair CLR 59 28.4 31% 30.12 0.0
03 00:55 Vrbl 6 10.00 Fair CLR 59 28.4 31% 30.13 0.0
03 00:35 Vrbl 5 10.00 Fair CLR 59 26.6 29% 30.13 0.0
03 00:15 Vrbl 5 10.00 Fair CLR 59 26.6 29% 30.13 0.0
02 23:55 N 3 10.00 Fair CLR 55.4 28.4 36% 30.12 0.0
02 23:35 N 2 10.00 Fair CLR 55.4 28.4 36% 30.13 0.0
02 23:15 N 2 10.00 Fair CLR 57.2 28.4 33% 30.13 0.0
02 22:55 Vrbl 1 10.00 Fair CLR 59 26.6 29% 30.12 0.0
02 22:35 NE 3 10.00 Fair CLR 60.8 26.6 27% 30.12 0.0
02 22:15 NE 3 10.00 Fair CLR 59 26.6 29% 30.11 0.0
02 21:55 N 2 10.00 Fair CLR 59 26.6 29% 30.11 0.0
02 21:35 Vrbl 1 10.00 Fair CLR 60.8 26.6 27% 30.11 0.0
02 21:15 SE 3 10.00 Fair CLR 64.4 24.8 22% 30.1 0.0
02 20:55 SE 5 10.00 Fair CLR 64.4 24.8 22% 30.09 0.0
02 20:35 SE 5 10.00 Fair CLR 64.4 24.8 22% 30.08 0.0
02 20:15 SE 3 10.00 Fair CLR 66.2 24.8 21% 30.08 0.0
02 19:55 Vrbl 3 10.00 Fair CLR 66.2 26.6 22% 30.07 0.0
02 19:35 SE 3 10.00 Fair CLR 66.2 26.6 22% 30.07 0.0
02 19:15 S 5 10.00 Fair CLR 68 26.6 21% 30.06 0.0
02 18:55 Vrbl 6 10.00 Fair CLR 68 26.6 21% 30.06 0.0
02 18:35 S 6 10.00 Fair CLR 69.8 26.6 20% 30.06 0.0
02 18:15 SW 3 10.00 Fair CLR 69.8 28.4 21% 30.06 0.0
02 17:55 Vrbl 7 10.00 Partly Cloudy SCT110 71.6 28.4 20% 30.06 0.0
02 17:35 S 8 10.00 Mostly Cloudy BKN095 71.6 28.4 20% 30.06 0.0
02 17:15 SW 12 G 16 10.00 Partly Cloudy FEW095 SCT120 71.6 28.4 20% 30.06 0.0
02 16:55 Vrbl 5 10.00 A Few Clouds FEW120 73.4 28.4 19% 30.06 0.0
02 16:35 S 9 G 17 10.00 Fair CLR 73.4 30.2 20% 30.06 0.0
02 16:15 Vrbl 6 10.00 Partly Cloudy FEW095 SCT110 71.6 30.2 22% 30.06 0.0
02 15:55 S 9 G 16 10.00 Mostly Cloudy BKN100 71.6 30.2 22% 30.07 0.0
02 15:35 S 9 10.00 Mostly Cloudy BKN110 71.6 32 23% 30.07 0.0
02 15:15 Vrbl 7 G 16 10.00 Partly Cloudy SCT110 73.4 32 22% 30.07 0.0
02 14:55 Vrbl 2 10.00 A Few Clouds FEW110 73.4 32 22% 30.08 0.0
02 14:35 S 8 10.00 Mostly Cloudy SCT080 BKN110 71.6 33.8 25% 30.09 0.0
02 14:15 Vrbl 6 G 16 10.00 Mostly Cloudy BKN090 BKN110 73.4 33.8 23% 30.1 0.0
02 13:55 Vrbl 2 10.00 Partly Cloudy SCT090 69.8 32 25% 30.11 0.0
02 13:35 S 10 G 18 10.00 Partly Cloudy SCT080 SCT100 71.6 33.8 25% 30.11 0.0
02 13:15 SW 8 10.00 Mostly Cloudy BKN090 71.6 33.8 25% 30.12 0.0
02 12:55 Vrbl 5 G 16 10.00 Mostly Cloudy BKN080 69.8 32 25% 30.13 0.0
02 12:35 SW 8 G 17 10.00 Partly Cloudy SCT090 71.6 32 23% 30.13 0.0
02 12:15 Vrbl 7 10.00 A Few Clouds FEW090 71.6 30.2 22% 30.14 0.0
02 11:55 S 12 G 18 10.00 A Few Clouds FEW075 FEW095 69.8 32 25% 30.14 0.0
02 11:35 W 8 10.00 Partly Cloudy SCT065 SCT090 68 32 26% 30.15 0.0
02 11:15 Vrbl 7 10.00 Mostly Cloudy BKN065 69.8 33.8 27% 30.16 0.0
02 10:55 SE 7 10.00 Partly Cloudy SCT065 66.2 33.8 30% 30.17 0.0
02 10:35 Vrbl 6 10.00 A Few Clouds FEW065 66.2 33.8 30% 30.17 0.0
02 10:15 Vrbl 6 10.00 Fair CLR 68 33.8 28% 30.17 0.0
02 09:55 Vrbl 6 10.00 Fair CLR 66.2 33.8 30% 30.17 0.0
02 09:35 Vrbl 5 G 17 10.00 Fair CLR 66.2 33.8 30% 30.17 0.0
02 09:15 E 10 10.00 Fair CLR 64.4 33.8 32% 30.17 0.0
02 08:55 SE 8 G 16 10.00 Fair CLR 62.6 33.8 34% 30.17 0.0
02 08:35 SE 8 10.00 Fair CLR 60.8 33.8 36% 30.17 0.0
02 08:15 Vrbl 6 10.00 Fair CLR 60.8 32 34% 30.17 0.0
02 07:55 E 8 10.00 Fair CLR 60.8 32 34% 30.16 0.0
02 07:35 E 9 G 16 10.00 Fair CLR 59 30.2 34% 30.16 0.0
02 07:15 Vrbl 6 10.00 Fair CLR 57.2 30.2 36% 30.16 0.0
02 06:55 Vrbl 6 10.00 Fair CLR 57.2 30.2 36% 30.15 0.0
02 06:35 NE 7 10.00 Fair CLR 55.4 30.2 38% 30.14 0.0
02 06:15 N 2 10.00 Fair CLR 50 28.4 43% 30.12 0.0
02 05:55 NE 3 10.00 Fair CLR 48.2 28.4 46% 30.12 0.0
02 05:35 Calm 10.00 Fair CLR 50 28.4 43% 30.11 0.0
02 05:15 Vrbl 2 10.00 Fair CLR 50 28.4 43% 30.11 0.0
02 04:55 Vrbl 3 10.00 Fair CLR 53.6 28.4 38% 30.1 0.0
02 04:35 SE 2 10.00 Fair CLR 51.8 28.4 41% 30.1 0.0
02 04:15 Vrbl 2 10.00 A Few Clouds FEW100 53.6 28.4 38% 30.1 0.0
02 03:55 SE 3 10.00 Mostly Cloudy BKN100 53.6 28.4 38% 30.1 0.0
02 03:35 Vrbl 3 10.00 Overcast OVC100 55.4 28.4 36% 30.1 0.0
02 03:15 Vrbl 6 10.00 Overcast OVC110 55.4 28.4 36% 30.1 0.0
02 02:55 Vrbl 6 10.00 Overcast OVC110 55.4 28.4 36% 30.1 0.0
02 02:35 E 5 10.00 Overcast OVC110 55.4 28.4 36% 30.1 0.0
02 02:15 E 5 10.00 Overcast OVC110 55.4 26.6 33% 30.1 0.0
02 01:55 Vrbl 2 10.00 Overcast OVC110 55.4 28.4 36% 30.1 0.0
02 01:35 E 9 10.00 Overcast OVC110 57.2 26.6 31% 30.1 0.0
02 01:15 NE 9 10.00 Mostly Cloudy BKN120 55.4 26.6 33% 30.1 0.0
02 00:55 E 5 10.00 Fair CLR 57.2 26.6 31% 30.11 0.0
02 00:35 NE 6 10.00 Partly Cloudy SCT080 SCT110 57.2 26.6 31% 30.11 0.0
02 00:15 NE 10 G 17 10.00 Mostly Cloudy BKN080 BKN110 57.2 26.6 31% 30.11 0.0
01 23:55 NE 10 10.00 Overcast FEW080 OVC090 59 26.6 29% 30.11 0.0
01 23:35 NE 13 G 20 10.00 Overcast SCT080 OVC100 59 26.6 29% 30.11 0.0
01 23:15 NE 14 G 21 10.00 Overcast FEW065 BKN080 OVC100 59 26.6 29% 30.1 0.0
01 22:55 NE 17 G 24 10.00 Overcast BKN080 OVC100 59 28.4 31% 30.1 0.0
01 22:35 NE 14 G 24 10.00 Overcast FEW060 BKN080 OVC110 59 28.4 31% 30.09 0.0
01 22:15 NE 15 G 23 10.00 Mostly Cloudy SCT080 BKN095 BKN110 59 30.2 34% 30.09 0.0
01 21:55 NE 18 G 25 10.00 Mostly Cloudy SCT065 SCT080 BKN110 60.8 28.4 29% 30.08 0.0
01 21:35 NE 16 G 22 10.00 Overcast FEW048 BKN070 OVC075 62.6 26.6 25% 30.07 0.0
01 21:15 NE 15 G 24 10.00 Overcast BKN080 OVC110 62.6 24.8 24% 30.06 0.0
01 20:55 N 10 10.00 Mostly Cloudy FEW080 BKN120 62.6 26.6 25% 30.05 0.0
01 20:35 N 5 10.00 Overcast SCT080 OVC110 62.6 26.6 25% 30.04 0.0
01 20:15 W 5 10.00 Mostly Cloudy BKN110 64.4 26.6 24% 30.02 0.0
01 19:55 SW 5 10.00 A Few Clouds FEW120 64.4 26.6 24% 30.01 0.0
01 19:35 SW 5 10.00 Fair CLR 64.4 26.6 24% 30 0.0
Date Time (mst) Wind (mph) Vis. (mi.) Weather Sky Cond. Air Dwpt Max. Min. Relative Humidity Wind Chill (°F) Heat Index (°F) altimeter (in) sea level (mb) 1 hr 3 hr 6 hr
6 hour
Temperature (ºF) Pressure Precipitation (in)